Rivolto Air Base

LIPI · Friuli Venezia Giulia, 意大利

METAR的历史 LIPI · Rivolto Air Base

下面你可以看到过去几天的METARs。 选择年份以浏览从2007年开始的旧METAR。

2022年12月6日

时间 代码 天气 温度 能见度 天花板 METAR/SPECI
09:55
V
7 °C 10 km+ - 350° 350° 4 kt METAR LIPI 060855Z 35004KT 9999 FEW002 07/04 Q1016
09:55
V
7 °C 10 km+ - 350° 350° 4 kt METAR LIPI 060855Z 35004KT 9999 FEW002 07/04 Q1016
09:32
V
6 °C 10 km+ - 350° 350° 3 kt METAR LIPI 060832Z 35003KT 9999 2000W BR SCT002 06/04 Q1016 RMK SCT VIS MAX E 20 KM VIS MIN 2000W WIND THR06 03004KT WIND THR24 36001KT YLO
08:55
L
6 °C 900 m 200 ft 020° 020° 3 kt METAR LIPI 060755Z 02003KT 0900 FG BKN002 06/04 Q1016
07:55
L
6 °C 500 m 200 ft 040° 040° 6 kt METAR LIPI 060655Z 04006KT 0500 FG OVC002 06/03 Q1015
06:55
L
7 °C 700 m 200 ft 340° 340° 4 kt METAR LIPI 060555Z 34004KT 0700 FG OVC002 07/04 Q1015
05:55
L
7 °C 900 m 700 ft 010° 010° 3 kt METAR LIPI 060455Z 01003KT 0900 FG SCT004 BKN007 07/04 Q1015
04:55
L
7 °C 200 m 200 ft 360° 360° 4 kt METAR LIPI 060355Z 36004KT 0200 FG OVC002 07/04 Q1015
03:55
L
7 °C 0 m 100 ft 350° 350° 3 kt METAR LIPI 060255Z 35003KT 0100 0000 FG BKN001 SCT005 07/04 Q1015
02:55
L
7 °C 400 m 2.500 ft 070° 070° 3 kt METAR LIPI 060155Z 07003KT 0400 FG SCT016 BKN025 07/05 Q1015
01:55
L
7 °C 200 m - 080° 080° 2 kt METAR LIPI 060055Z 08002KT 0200 FG SCT002 SCT025 07/05 Q1015
00:55
L
8 °C 200 m 100 ft Var Var 1 kt METAR LIPI 052355Z VRB01KT 0200 -DZFG BKN001 08/05 Q1015

2022年12月5日

时间 代码 天气 温度 能见度 天花板 METAR/SPECI
23:55
L
8 °C 500 m 200 ft 190° 190° 4 kt METAR LIPI 052255Z 19004KT 0500 BCFG OVC002 08/06 Q1015
22:55
L
8 °C 700 m 1.100 ft 090° 090° 3 kt METAR LIPI 052155Z 09003KT 0700 BCFG SCT008 BKN011 08/06 Q1015
21:55
I
8 °C 3 km 1.000 ft 100° 100° 3 kt METAR LIPI 052055Z 10003KT 3000 BR BKN010 08/06 Q1015
21:09
L
9 °C 600 m - 010° 010° 2 kt METAR LIPI 052009Z 01002KT 0600 FG SCT008 SCT012 09/08 Q1015 RMK BKN VIS MIN 0600 WIND THR06 11002KT WIND THR24 06002KT RED
20:55
I
9 °C 3 km - 110° 110° 2 kt METAR LIPI 051955Z 11002KT 3000 BR SCT009 SCT083 09/08 Q1015
19:55
M
9 °C 10 km+ 2.500 ft 300° 300° 3 kt METAR LIPI 051855Z 30003KT 9999 SCT008 BKN025 09/09 Q1014 RETS
18:55
V
10 °C 10 km+ - 230° 230° 3 kt METAR LIPI 051755Z 23003KT 9999 -TSRA SCT020CB SCT030 10/09 Q1014
18:28
V
10 °C 10 km+ - 200° 200° 7 kt METAR LIPI 051728Z 20007KT 9999 -TSRA SCT020CB SCT030 10/10 Q1014 RMK OVC VIS MIN 9999 WIND THR06 22007KT WIND THR24 21006KT BLU
17:55
V
10 °C 10 km+ 3.000 ft 020° 020° 1 kt METAR LIPI 051655Z 02001KT 9999 RA SCT020 BKN030 10/10 Q1015
16:55
V
11 °C 10 km+ 3.000 ft 110° 110° 3 kt METAR LIPI 051555Z 11003KT 9999 SCT016 BKN030 11/09 Q1015 RMK OVC VIS MIN 9999 WIND THR06 17003KT WIND THR24 12003KT BLU
15:55
V
11 °C 10 km+ - 100° 100° 3 kt METAR LIPI 051455Z 10003KT 9999 SCT023 SCT030 11/10 Q1016 RERA
14:55
V
12 °C 10 km+ 3.000 ft 100° 100° 5 kt METAR LIPI 051355Z 10005KT 9999 SCT009 BKN030 12/09 Q1016
13:55
M
12 °C 10 km+ 2.500 ft 080° 080° 6 kt METAR LIPI 051255Z 08006KT 9999 SCT010 BKN025 12/09 Q1017
12:55
V
11 °C 10 km+ - 040° 040° 6 kt METAR LIPI 051155Z 04006KT 9999 SCT010 SCT030 11/09 Q1017
11:55
V
10 °C 10 km+ - 350° 350° 7 kt METAR LIPI 051055Z 35007KT 9999 SCT010 SCT030 10/09 Q1018
10:55
V
9 °C 10 km+ 3.000 ft 310° 310° 3 kt METAR LIPI 050955Z 31003KT 9999 SCT010 BKN030 09/09 Q1018
09:55
M
8 °C 5 km 3.000 ft 330° 330° 4 kt METAR LIPI 050855Z 33004KT 5000 -RA SCT010 BKN030 08/06 Q1018
09:24
M
8 °C 5 km 3.000 ft 350° 350° 4 kt METAR LIPI 050824Z 35004KT 5000 -RA SCT008 BKN030 08/07 Q1018 RMK OVC VIS MIN 5000 WIND THR06 04005KT WIND THR24 36003KT WHT
08:55
I
8 °C 7 km 900 ft 350° 350° 5 kt METAR LIPI 050755Z 35005KT 7000 -RA BKN009 08/06 Q1018
07:55
M
7 °C 10 km+ 2.500 ft 360° 360° 6 kt METAR LIPI 050655Z 36006KT 9999 4000SW SCT010 BKN025 07/06 Q1018
06:55
M
7 °C 7 km 4.000 ft 330° 330° 5 kt METAR LIPI 050555Z 33005KT 7000 -RA SCT015 BKN040 07/06 Q1017
05:55
M
7 °C 7 km 5.000 ft 320° 320° 3 kt METAR LIPI 050455Z 32003KT 7000 -RA FEW013 SCT020 BKN050 07/05 Q1017 RMK OVC VIS MIN 7000 WIND THR06 36004KT WIND THR24 31003KT WHT
03:55
V
5 °C 10 km+ - 020° 020° 4 kt METAR LIPI 050255Z 02004KT 9999 SCT090 05/04 Q1017 RMK BKN SCT120 VIS MIN 9999 WIND THR06 05005KT WIND THR24 04004KT BLU
02:55
V
5 °C 10 km+ - 350° 350° 6 kt METAR LIPI 050155Z 35006KT 9999 FEW110 05/04 Q1017
01:55
V
5 °C 10 km+ - 010° 010° 4 kt METAR LIPI 050055Z 01004KT 9999 SCT110 05/04 Q1018
00:55
V
5 °C 10 km+ - 010° 010° 4 kt METAR LIPI 042355Z 01004KT 9999 FEW080 05/04 Q1018

2022年12月4日

时间 代码 天气 温度 能见度 天花板 METAR/SPECI
23:55
V
7 °C 10 km+ 8.000 ft 030° 030° 4 kt METAR LIPI 042255Z 03004KT 9999 BKN080 07/05 Q1018
22:55
V
7 °C 10 km+ 7.000 ft 330° 330° 3 kt METAR LIPI 042155Z 33003KT 9999 SCT015 BKN070 07/06 Q1018 RMK BKN VIS MIN 9999 WIND THR06 35003KT WIND THR24 33002KT BLU
21:55
V
7 °C 10 km+ 7.000 ft 010° 010° 4 kt METAR LIPI 042055Z 01004KT 9999 SCT018 BKN070 07/05 Q1018
20:55
V
7 °C 10 km+ 7.000 ft 010° 010° 4 kt METAR LIPI 041955Z 01004KT 9999 FEW030 OVC070 07/05 Q1017
19:55
M
7 °C 10 km+ 2.000 ft 020° 020° 6 kt METAR LIPI 041855Z 02006KT 9999 SCT015 BKN020 07/05 Q1017 RMK OVC VIS MIN 9999 WIND THR06 06006KT WIND THR24 04006KT WHT
18:55
M
7 °C 10 km+ 2.000 ft 040° 040° 6 kt METAR LIPI 041755Z 04006KT 9999 SCT015 BKN020 07/05 Q1017
17:55
M
7 °C 10 km+ 1.500 ft 030° 030° 6 kt METAR LIPI 041655Z 03006KT 9999 SCT011 BKN015 07/05 Q1016
16:55
M
7 °C 9 km 2.500 ft 360° 360° 11 kt METAR LIPI 041555Z 36011KT 9000 -RA SCT012 BKN025 07/05 Q1015
15:55
M
7 °C 6 km 1.800 ft 030° 030° 6 kt METAR LIPI 041455Z 03006KT 6000 -RA SCT013 BKN018 07/05 Q1015
14:55
M
8 °C 5 km 2.500 ft 350° 350° 5 kt METAR LIPI 041355Z 35005KT 5000 -RA BR SCT020 BKN025 08/06 Q1014
13:55
M
8 °C 10 km+ 2.200 ft 040° 040° 8 kt METAR LIPI 041255Z 04008KT 9999 -RA SCT015 BKN022 08/05 Q1014
12:55
M
8 °C 10 km+ 2.500 ft 030° 030° 9 kt METAR LIPI 041155Z 03009KT 9999 -RA SCT020 BKN025 08/05 Q1014
11:55
V
8 °C 10 km+ 3.000 ft 020° 020° 11 kt METAR LIPI 041055Z 02011KT 9999 -RA SCT025 BKN030 08/05 Q1014
10:55
M
8 °C 7 km 3.500 ft 030° 030° 10 kt METAR LIPI 040955Z 03010KT 7000 -RA SCT025 OVC035 08/06 Q1014

我们和第三方通过cookies跟踪您在我们网站上的互联网行为。如果你继续,我们认为你同意我们的饼干政策